sensor_id;sensor_type;location;lat;lon;timestamp;temperature;humidity
4602;DHT22;2313;48.552;9.370;2023-04-25T00:01:11;8.40;99.90
4602;DHT22;2313;48.552;9.370;2023-04-25T00:03:38;8.40;99.90
4602;DHT22;2313;48.552;9.370;2023-04-25T00:06:04;8.10;99.90
4602;DHT22;2313;48.552;9.370;2023-04-25T00:08:30;8.20;99.90
4602;DHT22;2313;48.552;9.370;2023-04-25T00:10:59;8.30;99.90
4602;DHT22;2313;48.552;9.370;2023-04-25T00:13:25;8.30;99.90
4602;DHT22;2313;48.552;9.370;2023-04-25T00:15:52;8.30;99.90
4602;DHT22;2313;48.552;9.370;2023-04-25T00:18:19;8.30;99.90
4602;DHT22;2313;48.552;9.370;2023-04-25T00:20:44;8.30;99.90
4602;DHT22;2313;48.552;9.370;2023-04-25T00:23:13;8.30;99.90
4602;DHT22;2313;48.552;9.370;2023-04-25T00:25:46;8.30;99.90
4602;DHT22;2313;48.552;9.370;2023-04-25T00:28:12;8.40;99.90
4602;DHT22;2313;48.552;9.370;2023-04-25T00:30:38;8.60;99.90
4602;DHT22;2313;48.552;9.370;2023-04-25T00:33:04;8.50;99.90
4602;DHT22;2313;48.552;9.370;2023-04-25T00:35:30;8.60;99.90
4602;DHT22;2313;48.552;9.370;2023-04-25T00:37:56;8.70;99.90
4602;DHT22;2313;48.552;9.370;2023-04-25T00:40:21;8.70;99.90
4602;DHT22;2313;48.552;9.370;2023-04-25T00:42:47;8.70;99.90
4602;DHT22;2313;48.552;9.370;2023-04-25T00:45:14;8.80;99.90
4602;DHT22;2313;48.552;9.370;2023-04-25T00:47:43;8.80;99.90
4602;DHT22;2313;48.552;9.370;2023-04-25T00:50:10;8.80;99.90
4602;DHT22;2313;48.552;9.370;2023-04-25T00:52:38;8.90;99.90
4602;DHT22;2313;48.552;9.370;2023-04-25T00:55:05;8.80;99.90
4602;DHT22;2313;48.552;9.370;2023-04-25T00:57:31;8.90;99.90
4602;DHT22;2313;48.552;9.370;2023-04-25T00:59:58;8.90;99.90
4602;DHT22;2313;48.552;9.370;2023-04-25T01:02:25;8.70;99.90
4602;DHT22;2313;48.552;9.370;2023-04-25T01:04:52;8.90;99.90
4602;DHT22;2313;48.552;9.370;2023-04-25T01:07:18;8.90;99.90
4602;DHT22;2313;48.552;9.370;2023-04-25T01:09:44;8.90;99.90
4602;DHT22;2313;48.552;9.370;2023-04-25T01:12:09;9.00;99.90
4602;DHT22;2313;48.552;9.370;2023-04-25T01:14:35;8.90;99.90
4602;DHT22;2313;48.552;9.370;2023-04-25T01:17:01;8.90;99.90
4602;DHT22;2313;48.552;9.370;2023-04-25T01:19:27;8.90;99.90
4602;DHT22;2313;48.552;9.370;2023-04-25T01:21:52;9.00;99.90
4602;DHT22;2313;48.552;9.370;2023-04-25T01:24:18;8.90;99.90
4602;DHT22;2313;48.552;9.370;2023-04-25T01:26:44;8.90;99.90
4602;DHT22;2313;48.552;9.370;2023-04-25T01:29:18;8.90;99.90
4602;DHT22;2313;48.552;9.370;2023-04-25T01:31:45;8.80;99.90
4602;DHT22;2313;48.552;9.370;2023-04-25T01:34:11;8.80;99.90
4602;DHT22;2313;48.552;9.370;2023-04-25T01:36:37;8.70;99.90
4602;DHT22;2313;48.552;9.370;2023-04-25T01:39:03;8.70;99.90
4602;DHT22;2313;48.552;9.370;2023-04-25T01:41:29;8.70;99.90
4602;DHT22;2313;48.552;9.370;2023-04-25T01:43:55;8.70;99.90
4602;DHT22;2313;48.552;9.370;2023-04-25T01:46:21;8.70;99.90
4602;DHT22;2313;48.552;9.370;2023-04-25T01:48:47;8.70;99.90
4602;DHT22;2313;48.552;9.370;2023-04-25T01:51:12;8.70;99.90
4602;DHT22;2313;48.552;9.370;2023-04-25T01:53:38;8.70;99.90
4602;DHT22;2313;48.552;9.370;2023-04-25T01:56:05;8.70;99.90
4602;DHT22;2313;48.552;9.370;2023-04-25T01:58:30;8.70;99.90
4602;DHT22;2313;48.552;9.370;2023-04-25T02:00:56;8.70;99.90
4602;DHT22;2313;48.552;9.370;2023-04-25T02:03:22;8.70;99.90
4602;DHT22;2313;48.552;9.370;2023-04-25T02:05:47;8.70;99.90
4602;DHT22;2313;48.552;9.370;2023-04-25T02:08:13;8.60;99.90
4602;DHT22;2313;48.552;9.370;2023-04-25T02:10:39;8.50;99.90
4602;DHT22;2313;48.552;9.370;2023-04-25T02:13:05;8.50;99.90
4602;DHT22;2313;48.552;9.370;2023-04-25T02:15:31;8.50;99.90
4602;DHT22;2313;48.552;9.370;2023-04-25T02:17:57;8.60;99.90
4602;DHT22;2313;48.552;9.370;2023-04-25T02:20:24;8.60;99.90
4602;DHT22;2313;48.552;9.370;2023-04-25T02:22:50;8.60;99.90
4602;DHT22;2313;48.552;9.370;2023-04-25T02:25:17;8.60;99.90
4602;DHT22;2313;48.552;9.370;2023-04-25T02:27:43;8.60;99.90
4602;DHT22;2313;48.552;9.370;2023-04-25T02:30:09;8.60;99.90
4602;DHT22;2313;48.552;9.370;2023-04-25T02:32:35;8.60;99.90
4602;DHT22;2313;48.552;9.370;2023-04-25T02:35:01;8.60;99.90
4602;DHT22;2313;48.552;9.370;2023-04-25T02:37:30;8.60;99.90
4602;DHT22;2313;48.552;9.370;2023-04-25T02:39:56;8.60;99.90
4602;DHT22;2313;48.552;9.370;2023-04-25T02:42:21;8.50;99.90
4602;DHT22;2313;48.552;9.370;2023-04-25T02:44:47;8.40;99.90
4602;DHT22;2313;48.552;9.370;2023-04-25T02:47:13;8.40;99.90
4602;DHT22;2313;48.552;9.370;2023-04-25T02:49:38;8.30;99.90
4602;DHT22;2313;48.552;9.370;2023-04-25T02:52:04;8.30;99.90
4602;DHT22;2313;48.552;9.370;2023-04-25T02:54:30;8.20;99.90
4602;DHT22;2313;48.552;9.370;2023-04-25T02:56:55;8.10;99.90
4602;DHT22;2313;48.552;9.370;2023-04-25T02:59:21;8.10;99.90
4602;DHT22;2313;48.552;9.370;2023-04-25T03:01:47;8.10;99.90
4602;DHT22;2313;48.552;9.370;2023-04-25T03:04:12;8.10;99.90
4602;DHT22;2313;48.552;9.370;2023-04-25T03:06:38;8.00;99.90
4602;DHT22;2313;48.552;9.370;2023-04-25T03:09:03;7.90;99.90
4602;DHT22;2313;48.552;9.370;2023-04-25T03:11:29;7.80;99.90
4602;DHT22;2313;48.552;9.370;2023-04-25T03:13:55;7.80;99.90
4602;DHT22;2313;48.552;9.370;2023-04-25T03:16:21;7.80;99.90
4602;DHT22;2313;48.552;9.370;2023-04-25T03:18:47;7.80;99.90
4602;DHT22;2313;48.552;9.370;2023-04-25T03:21:13;7.80;99.90
4602;DHT22;2313;48.552;9.370;2023-04-25T03:23:38;7.80;99.90
4602;DHT22;2313;48.552;9.370;2023-04-25T03:26:04;7.80;99.90
4602;DHT22;2313;48.552;9.370;2023-04-25T03:28:29;7.70;99.90
4602;DHT22;2313;48.552;9.370;2023-04-25T03:30:55;7.70;99.90
4602;DHT22;2313;48.552;9.370;2023-04-25T03:33:21;7.70;99.90
4602;DHT22;2313;48.552;9.370;2023-04-25T03:35:46;7.60;99.90
4602;DHT22;2313;48.552;9.370;2023-04-25T03:38:12;7.60;99.90
4602;DHT22;2313;48.552;9.370;2023-04-25T03:40:38;7.50;99.90
4602;DHT22;2313;48.552;9.370;2023-04-25T03:43:03;7.60;99.90
4602;DHT22;2313;48.552;9.370;2023-04-25T03:45:29;7.60;99.90
4602;DHT22;2313;48.552;9.370;2023-04-25T03:47:55;7.70;99.90
4602;DHT22;2313;48.552;9.370;2023-04-25T03:50:20;7.70;99.90
4602;DHT22;2313;48.552;9.370;2023-04-25T03:52:46;7.80;99.90
4602;DHT22;2313;48.552;9.370;2023-04-25T03:55:11;7.80;99.90
4602;DHT22;2313;48.552;9.370;2023-04-25T03:57:37;7.80;99.90
4602;DHT22;2313;48.552;9.370;2023-04-25T04:00:03;7.80;99.90
4602;DHT22;2313;48.552;9.370;2023-04-25T04:02:29;7.70;99.90
4602;DHT22;2313;48.552;9.370;2023-04-25T04:04:55;7.70;99.90
4602;DHT22;2313;48.552;9.370;2023-04-25T04:07:21;7.80;99.90
4602;DHT22;2313;48.552;9.370;2023-04-25T04:09:47;7.70;99.90
4602;DHT22;2313;48.552;9.370;2023-04-25T04:12:13;7.80;99.90
4602;DHT22;2313;48.552;9.370;2023-04-25T04:14:38;7.80;99.90
4602;DHT22;2313;48.552;9.370;2023-04-25T04:17:04;7.70;99.90
4602;DHT22;2313;48.552;9.370;2023-04-25T04:19:31;7.70;99.90
4602;DHT22;2313;48.552;9.370;2023-04-25T04:21:56;7.70;99.90
4602;DHT22;2313;48.552;9.370;2023-04-25T04:24:22;7.70;99.90
4602;DHT22;2313;48.552;9.370;2023-04-25T04:26:47;7.60;99.90
4602;DHT22;2313;48.552;9.370;2023-04-25T04:29:13;7.60;99.90
4602;DHT22;2313;48.552;9.370;2023-04-25T04:31:49;7.60;99.90
4602;DHT22;2313;48.552;9.370;2023-04-25T04:34:14;7.60;99.90
4602;DHT22;2313;48.552;9.370;2023-04-25T04:36:41;7.40;99.90
4602;DHT22;2313;48.552;9.370;2023-04-25T04:39:07;7.30;99.90
4602;DHT22;2313;48.552;9.370;2023-04-25T04:41:34;7.20;99.90
4602;DHT22;2313;48.552;9.370;2023-04-25T04:44:00;7.30;99.90
4602;DHT22;2313;48.552;9.370;2023-04-25T04:46:26;7.40;99.90
4602;DHT22;2313;48.552;9.370;2023-04-25T04:48:53;7.60;99.90
4602;DHT22;2313;48.552;9.370;2023-04-25T04:51:19;7.70;99.90
4602;DHT22;2313;48.552;9.370;2023-04-25T04:53:44;7.70;99.90
4602;DHT22;2313;48.552;9.370;2023-04-25T04:56:10;7.80;99.90
4602;DHT22;2313;48.552;9.370;2023-04-25T04:58:36;7.80;99.90
4602;DHT22;2313;48.552;9.370;2023-04-25T05:01:02;7.90;99.90
4602;DHT22;2313;48.552;9.370;2023-04-25T05:03:28;8.00;99.90
4602;DHT22;2313;48.552;9.370;2023-04-25T05:05:53;7.90;99.90
4602;DHT22;2313;48.552;9.370;2023-04-25T05:08:19;8.00;99.90
4602;DHT22;2313;48.552;9.370;2023-04-25T05:10:45;8.20;99.90
4602;DHT22;2313;48.552;9.370;2023-04-25T05:13:10;8.20;99.90
4602;DHT22;2313;48.552;9.370;2023-04-25T05:15:36;8.30;99.90
4602;DHT22;2313;48.552;9.370;2023-04-25T05:18:01;8.40;99.90
4602;DHT22;2313;48.552;9.370;2023-04-25T05:20:27;8.30;99.90
4602;DHT22;2313;48.552;9.370;2023-04-25T05:22:53;8.40;99.90
4602;DHT22;2313;48.552;9.370;2023-04-25T05:25:18;8.50;99.90
4602;DHT22;2313;48.552;9.370;2023-04-25T05:27:44;8.60;99.90
4602;DHT22;2313;48.552;9.370;2023-04-25T05:30:10;8.80;99.90
4602;DHT22;2313;48.552;9.370;2023-04-25T05:32:35;8.80;99.90
4602;DHT22;2313;48.552;9.370;2023-04-25T05:35:02;8.80;99.90
4602;DHT22;2313;48.552;9.370;2023-04-25T05:37:28;8.70;99.90
4602;DHT22;2313;48.552;9.370;2023-04-25T05:39:55;8.70;99.90
4602;DHT22;2313;48.552;9.370;2023-04-25T05:42:21;8.70;99.90
4602;DHT22;2313;48.552;9.370;2023-04-25T05:44:47;8.70;99.90
4602;DHT22;2313;48.552;9.370;2023-04-25T05:47:12;8.50;99.90
4602;DHT22;2313;48.552;9.370;2023-04-25T05:49:38;8.50;99.90
4602;DHT22;2313;48.552;9.370;2023-04-25T05:52:04;8.50;99.90
4602;DHT22;2313;48.552;9.370;2023-04-25T05:54:29;8.40;99.90
4602;DHT22;2313;48.552;9.370;2023-04-25T05:56:56;8.20;99.90
4602;DHT22;2313;48.552;9.370;2023-04-25T05:59:22;8.10;99.90
4602;DHT22;2313;48.552;9.370;2023-04-25T06:01:48;8.20;99.90
4602;DHT22;2313;48.552;9.370;2023-04-25T06:04:13;8.30;99.90
4602;DHT22;2313;48.552;9.370;2023-04-25T06:06:39;8.30;99.90
4602;DHT22;2313;48.552;9.370;2023-04-25T06:09:05;8.30;99.90
4602;DHT22;2313;48.552;9.370;2023-04-25T06:11:30;8.30;99.90
4602;DHT22;2313;48.552;9.370;2023-04-25T06:13:56;8.30;99.90
4602;DHT22;2313;48.552;9.370;2023-04-25T06:16:21;8.40;99.90
4602;DHT22;2313;48.552;9.370;2023-04-25T06:18:47;8.50;99.90
4602;DHT22;2313;48.552;9.370;2023-04-25T06:21:13;8.60;99.90
4602;DHT22;2313;48.552;9.370;2023-04-25T06:23:38;8.80;99.90
4602;DHT22;2313;48.552;9.370;2023-04-25T06:26:04;9.00;99.90
4602;DHT22;2313;48.552;9.370;2023-04-25T06:28:29;9.10;99.90
4602;DHT22;2313;48.552;9.370;2023-04-25T06:30:55;9.20;99.90
4602;DHT22;2313;48.552;9.370;2023-04-25T06:33:21;9.40;99.90
4602;DHT22;2313;48.552;9.370;2023-04-25T06:35:47;9.50;99.90
4602;DHT22;2313;48.552;9.370;2023-04-25T06:38:13;9.50;99.90
4602;DHT22;2313;48.552;9.370;2023-04-25T06:40:38;9.50;99.90
4602;DHT22;2313;48.552;9.370;2023-04-25T06:43:04;9.50;99.90
4602;DHT22;2313;48.552;9.370;2023-04-25T06:45:30;9.40;99.90
4602;DHT22;2313;48.552;9.370;2023-04-25T06:47:55;9.50;99.90
4602;DHT22;2313;48.552;9.370;2023-04-25T06:50:21;9.50;99.90
4602;DHT22;2313;48.552;9.370;2023-04-25T06:52:47;9.50;99.90
4602;DHT22;2313;48.552;9.370;2023-04-25T06:55:12;9.60;99.90
4602;DHT22;2313;48.552;9.370;2023-04-25T06:57:38;9.60;99.90
4602;DHT22;2313;48.552;9.370;2023-04-25T07:00:04;9.60;99.90
4602;DHT22;2313;48.552;9.370;2023-04-25T07:02:36;9.50;99.90
4602;DHT22;2313;48.552;9.370;2023-04-25T07:05:03;9.50;99.90
4602;DHT22;2313;48.552;9.370;2023-04-25T07:07:30;9.40;99.90
4602;DHT22;2313;48.552;9.370;2023-04-25T07:09:56;9.40;99.90
4602;DHT22;2313;48.552;9.370;2023-04-25T07:12:21;9.40;99.90
4602;DHT22;2313;48.552;9.370;2023-04-25T07:14:47;9.60;99.90
4602;DHT22;2313;48.552;9.370;2023-04-25T07:17:12;9.40;99.90
4602;DHT22;2313;48.552;9.370;2023-04-25T07:19:38;9.40;99.90
4602;DHT22;2313;48.552;9.370;2023-04-25T07:22:05;9.40;99.90
4602;DHT22;2313;48.552;9.370;2023-04-25T07:24:31;9.40;99.90
4602;DHT22;2313;48.552;9.370;2023-04-25T07:26:57;9.40;99.90
4602;DHT22;2313;48.552;9.370;2023-04-25T07:29:23;9.40;99.90
4602;DHT22;2313;48.552;9.370;2023-04-25T07:31:49;9.30;99.90
4602;DHT22;2313;48.552;9.370;2023-04-25T07:34:15;9.20;99.90
4602;DHT22;2313;48.552;9.370;2023-04-25T07:36:41;9.20;99.90
4602;DHT22;2313;48.552;9.370;2023-04-25T07:39:07;9.30;99.90
4602;DHT22;2313;48.552;9.370;2023-04-25T07:41:34;9.20;99.90
4602;DHT22;2313;48.552;9.370;2023-04-25T07:44:00;9.10;99.90
4602;DHT22;2313;48.552;9.370;2023-04-25T07:46:25;9.00;99.90
4602;DHT22;2313;48.552;9.370;2023-04-25T07:48:51;9.00;99.90
4602;DHT22;2313;48.552;9.370;2023-04-25T07:51:17;9.10;99.90
4602;DHT22;2313;48.552;9.370;2023-04-25T07:53:45;9.10;99.90
4602;DHT22;2313;48.552;9.370;2023-04-25T07:56:11;9.00;99.90
4602;DHT22;2313;48.552;9.370;2023-04-25T07:58:37;9.00;99.90
4602;DHT22;2313;48.552;9.370;2023-04-25T08:01:02;9.00;99.90
4602;DHT22;2313;48.552;9.370;2023-04-25T08:03:28;8.90;99.90
4602;DHT22;2313;48.552;9.370;2023-04-25T08:05:54;8.80;99.90
4602;DHT22;2313;48.552;9.370;2023-04-25T08:08:19;8.90;99.90
4602;DHT22;2313;48.552;9.370;2023-04-25T08:10:45;8.80;99.90
4602;DHT22;2313;48.552;9.370;2023-04-25T08:13:11;8.80;99.90
4602;DHT22;2313;48.552;9.370;2023-04-25T08:15:36;8.70;99.90
4602;DHT22;2313;48.552;9.370;2023-04-25T08:18:02;8.70;99.90
4602;DHT22;2313;48.552;9.370;2023-04-25T08:20:28;8.60;99.90
4602;DHT22;2313;48.552;9.370;2023-04-25T08:22:53;8.70;99.90
4602;DHT22;2313;48.552;9.370;2023-04-25T08:25:19;8.60;99.90
4602;DHT22;2313;48.552;9.370;2023-04-25T08:27:44;8.60;99.90
4602;DHT22;2313;48.552;9.370;2023-04-25T08:30:10;8.50;99.90
4602;DHT22;2313;48.552;9.370;2023-04-25T08:32:36;8.40;99.90
4602;DHT22;2313;48.552;9.370;2023-04-25T08:35:04;8.40;99.90
4602;DHT22;2313;48.552;9.370;2023-04-25T08:37:30;8.30;99.90
4602;DHT22;2313;48.552;9.370;2023-04-25T08:39:55;8.20;99.90
4602;DHT22;2313;48.552;9.370;2023-04-25T08:42:22;8.10;99.90
4602;DHT22;2313;48.552;9.370;2023-04-25T08:44:49;8.10;99.90
4602;DHT22;2313;48.552;9.370;2023-04-25T08:47:15;8.10;99.90
4602;DHT22;2313;48.552;9.370;2023-04-25T08:49:45;8.10;99.90
4602;DHT22;2313;48.552;9.370;2023-04-25T08:52:13;8.10;99.90
4602;DHT22;2313;48.552;9.370;2023-04-25T08:54:42;8.10;99.90
4602;DHT22;2313;48.552;9.370;2023-04-25T08:57:09;8.00;99.90
4602;DHT22;2313;48.552;9.370;2023-04-25T08:59:35;7.90;99.90
4602;DHT22;2313;48.552;9.370;2023-04-25T09:02:03;8.00;99.90
4602;DHT22;2313;48.552;9.370;2023-04-25T09:04:31;8.00;99.90
4602;DHT22;2313;48.552;9.370;2023-04-25T09:06:56;8.00;99.90
4602;DHT22;2313;48.552;9.370;2023-04-25T09:09:23;8.00;99.90
4602;DHT22;2313;48.552;9.370;2023-04-25T09:11:49;8.00;99.90
4602;DHT22;2313;48.552;9.370;2023-04-25T09:19:26;8.10;99.90
4602;DHT22;2313;48.552;9.370;2023-04-25T09:21:55;8.00;99.90
4602;DHT22;2313;48.552;9.370;2023-04-25T09:24:47;8.00;99.90
4602;DHT22;2313;48.552;9.370;2023-04-25T09:27:19;8.10;99.90
4602;DHT22;2313;48.552;9.370;2023-04-25T09:29:45;8.00;99.90
4602;DHT22;2313;48.552;9.370;2023-04-25T09:34:42;8.00;99.90
4602;DHT22;2313;48.552;9.370;2023-04-25T09:37:09;8.20;99.90
4602;DHT22;2313;48.552;9.370;2023-04-25T09:39:37;8.20;99.90
4602;DHT22;2313;48.552;9.370;2023-04-25T09:42:03;8.20;99.90
4602;DHT22;2313;48.552;9.370;2023-04-25T09:44:29;8.20;99.90
4602;DHT22;2313;48.552;9.370;2023-04-25T09:46:55;8.10;99.90
4602;DHT22;2313;48.552;9.370;2023-04-25T09:49:21;8.10;99.90
4602;DHT22;2313;48.552;9.370;2023-04-25T09:51:59;8.00;99.90
4602;DHT22;2313;48.552;9.370;2023-04-25T09:54:26;8.10;99.90
4602;DHT22;2313;48.552;9.370;2023-04-25T09:56:53;8.20;99.90
4602;DHT22;2313;48.552;9.370;2023-04-25T09:59:22;8.10;99.90
4602;DHT22;2313;48.552;9.370;2023-04-25T10:01:50;8.10;99.90
4602;DHT22;2313;48.552;9.370;2023-04-25T10:04:23;8.20;99.90
4602;DHT22;2313;48.552;9.370;2023-04-25T10:06:52;8.00;99.90
4602;DHT22;2313;48.552;9.370;2023-04-25T10:09:20;8.00;99.90
4602;DHT22;2313;48.552;9.370;2023-04-25T10:11:47;7.90;99.90
4602;DHT22;2313;48.552;9.370;2023-04-25T10:14:16;7.90;99.90
4602;DHT22;2313;48.552;9.370;2023-04-25T10:16:42;7.80;99.90
4602;DHT22;2313;48.552;9.370;2023-04-25T10:19:09;7.80;99.90
4602;DHT22;2313;48.552;9.370;2023-04-25T10:21:40;7.70;99.90
4602;DHT22;2313;48.552;9.370;2023-04-25T10:24:10;7.60;99.90
4602;DHT22;2313;48.552;9.370;2023-04-25T10:26:36;7.60;99.90
4602;DHT22;2313;48.552;9.370;2023-04-25T10:29:02;7.50;99.90
4602;DHT22;2313;48.552;9.370;2023-04-25T10:31:31;7.30;99.90
4602;DHT22;2313;48.552;9.370;2023-04-25T10:33:57;7.40;99.90
4602;DHT22;2313;48.552;9.370;2023-04-25T10:36:24;7.40;99.90
4602;DHT22;2313;48.552;9.370;2023-04-25T10:38:52;7.30;99.90
4602;DHT22;2313;48.552;9.370;2023-04-25T10:41:20;7.40;99.90
4602;DHT22;2313;48.552;9.370;2023-04-25T10:43:47;7.30;99.90
4602;DHT22;2313;48.552;9.370;2023-04-25T10:46:27;7.40;99.90
4602;DHT22;2313;48.552;9.370;2023-04-25T10:48:59;7.40;99.90
4602;DHT22;2313;48.552;9.370;2023-04-25T10:51:28;7.30;99.90
4602;DHT22;2313;48.552;9.370;2023-04-25T10:59:06;7.20;99.90
4602;DHT22;2313;48.552;9.370;2023-04-25T11:04:28;7.30;99.90
4602;DHT22;2313;48.552;9.370;2023-04-25T11:09:24;7.30;99.90
4602;DHT22;2313;48.552;9.370;2023-04-25T11:11:54;7.10;99.90
4602;DHT22;2313;48.552;9.370;2023-04-25T11:14:20;7.10;99.90
4602;DHT22;2313;48.552;9.370;2023-04-25T11:16:47;7.10;99.90
4602;DHT22;2313;48.552;9.370;2023-04-25T11:19:12;7.20;99.90
4602;DHT22;2313;48.552;9.370;2023-04-25T11:21:38;7.10;99.90
4602;DHT22;2313;48.552;9.370;2023-04-25T11:24:04;7.10;99.90
4602;DHT22;2313;48.552;9.370;2023-04-25T11:26:30;7.20;99.90
4602;DHT22;2313;48.552;9.370;2023-04-25T11:28:59;7.10;99.90
4602;DHT22;2313;48.552;9.370;2023-04-25T11:31:29;7.10;99.90
4602;DHT22;2313;48.552;9.370;2023-04-25T11:33:58;7.00;99.90
4602;DHT22;2313;48.552;9.370;2023-04-25T11:36:24;6.90;99.90
4602;DHT22;2313;48.552;9.370;2023-04-25T11:38:52;7.00;99.90
4602;DHT22;2313;48.552;9.370;2023-04-25T11:41:21;7.00;99.90
4602;DHT22;2313;48.552;9.370;2023-04-25T11:43:48;7.10;99.90
4602;DHT22;2313;48.552;9.370;2023-04-25T11:46:14;7.20;99.90
4602;DHT22;2313;48.552;9.370;2023-04-25T11:48:41;7.10;99.90
4602;DHT22;2313;48.552;9.370;2023-04-25T11:51:07;7.20;99.90
4602;DHT22;2313;48.552;9.370;2023-04-25T11:53:33;7.20;99.90
4602;DHT22;2313;48.552;9.370;2023-04-25T11:55:58;7.20;99.90
4602;DHT22;2313;48.552;9.370;2023-04-25T11:58:25;7.30;99.90
4602;DHT22;2313;48.552;9.370;2023-04-25T12:00:51;7.10;99.90
4602;DHT22;2313;48.552;9.370;2023-04-25T12:03:18;7.20;99.90
4602;DHT22;2313;48.552;9.370;2023-04-25T12:05:45;7.30;99.90
4602;DHT22;2313;48.552;9.370;2023-04-25T12:08:14;7.30;99.90
4602;DHT22;2313;48.552;9.370;2023-04-25T12:10:41;7.50;99.90
4602;DHT22;2313;48.552;9.370;2023-04-25T12:13:21;7.30;99.90
4602;DHT22;2313;48.552;9.370;2023-04-25T12:15:47;7.20;99.90
4602;DHT22;2313;48.552;9.370;2023-04-25T12:18:13;7.20;99.90
4602;DHT22;2313;48.552;9.370;2023-04-25T12:20:38;7.30;99.90
4602;DHT22;2313;48.552;9.370;2023-04-25T12:23:07;7.30;99.90
4602;DHT22;2313;48.552;9.370;2023-04-25T12:25:43;7.40;99.90
4602;DHT22;2313;48.552;9.370;2023-04-25T12:28:18;7.40;99.90
4602;DHT22;2313;48.552;9.370;2023-04-25T12:31:03;7.40;99.90
4602;DHT22;2313;48.552;9.370;2023-04-25T12:33:39;7.50;99.90
4602;DHT22;2313;48.552;9.370;2023-04-25T12:36:06;7.40;99.90
4602;DHT22;2313;48.552;9.370;2023-04-25T12:38:41;7.50;99.90
4602;DHT22;2313;48.552;9.370;2023-04-25T12:41:07;7.60;99.90
4602;DHT22;2313;48.552;9.370;2023-04-25T12:43:33;7.70;99.90
4602;DHT22;2313;48.552;9.370;2023-04-25T12:46:00;7.80;99.90
4602;DHT22;2313;48.552;9.370;2023-04-25T12:48:25;8.00;99.90
4602;DHT22;2313;48.552;9.370;2023-04-25T12:50:51;7.90;99.90
4602;DHT22;2313;48.552;9.370;2023-04-25T12:53:22;7.80;99.90
4602;DHT22;2313;48.552;9.370;2023-04-25T12:55:49;7.80;99.90
4602;DHT22;2313;48.552;9.370;2023-04-25T12:58:17;8.00;99.90
4602;DHT22;2313;48.552;9.370;2023-04-25T13:00:43;8.10;99.90
4602;DHT22;2313;48.552;9.370;2023-04-25T13:03:09;8.30;99.90
4602;DHT22;2313;48.552;9.370;2023-04-25T13:05:36;8.40;99.90
4602;DHT22;2313;48.552;9.370;2023-04-25T13:08:02;8.50;99.90
4602;DHT22;2313;48.552;9.370;2023-04-25T13:10:28;8.40;99.90
4602;DHT22;2313;48.552;9.370;2023-04-25T13:12:53;8.40;99.90
4602;DHT22;2313;48.552;9.370;2023-04-25T13:15:19;8.40;99.90
4602;DHT22;2313;48.552;9.370;2023-04-25T13:17:45;8.40;99.90
4602;DHT22;2313;48.552;9.370;2023-04-25T13:20:11;8.20;99.90
4602;DHT22;2313;48.552;9.370;2023-04-25T13:22:37;8.40;99.90
4602;DHT22;2313;48.552;9.370;2023-04-25T13:25:05;8.80;99.90
4602;DHT22;2313;48.552;9.370;2023-04-25T13:27:32;8.80;99.90
4602;DHT22;2313;48.552;9.370;2023-04-25T13:29:59;9.00;99.90
4602;DHT22;2313;48.552;9.370;2023-04-25T13:32:25;9.30;99.90
4602;DHT22;2313;48.552;9.370;2023-04-25T13:34:51;9.40;99.90
4602;DHT22;2313;48.552;9.370;2023-04-25T13:37:17;9.60;99.90
4602;DHT22;2313;48.552;9.370;2023-04-25T13:39:42;9.70;99.90
4602;DHT22;2313;48.552;9.370;2023-04-25T13:42:08;9.70;99.90
4602;DHT22;2313;48.552;9.370;2023-04-25T13:44:33;9.70;99.90
4602;DHT22;2313;48.552;9.370;2023-04-25T13:46:59;9.80;99.90
4602;DHT22;2313;48.552;9.370;2023-04-25T13:49:26;9.80;99.90
4602;DHT22;2313;48.552;9.370;2023-04-25T13:51:52;9.80;99.90
4602;DHT22;2313;48.552;9.370;2023-04-25T13:54:17;9.70;99.90
4602;DHT22;2313;48.552;9.370;2023-04-25T13:56:43;9.80;99.90
4602;DHT22;2313;48.552;9.370;2023-04-25T13:59:08;9.90;99.90
4602;DHT22;2313;48.552;9.370;2023-04-25T14:01:34;10.10;99.90
4602;DHT22;2313;48.552;9.370;2023-04-25T14:04:01;10.40;99.90
4602;DHT22;2313;48.552;9.370;2023-04-25T14:06:29;10.50;99.90
4602;DHT22;2313;48.552;9.370;2023-04-25T14:08:55;11.00;99.90
4602;DHT22;2313;48.552;9.370;2023-04-25T14:11:21;11.30;99.90
4602;DHT22;2313;48.552;9.370;2023-04-25T14:13:47;11.60;99.90
4602;DHT22;2313;48.552;9.370;2023-04-25T14:16:15;11.80;99.90
4602;DHT22;2313;48.552;9.370;2023-04-25T14:18:41;12.00;99.90
4602;DHT22;2313;48.552;9.370;2023-04-25T14:21:06;11.70;99.90
4602;DHT22;2313;48.552;9.370;2023-04-25T14:23:32;11.30;99.90
4602;DHT22;2313;48.552;9.370;2023-04-25T14:25:58;11.00;99.90
4602;DHT22;2313;48.552;9.370;2023-04-25T14:28:23;11.00;99.90
4602;DHT22;2313;48.552;9.370;2023-04-25T14:30:49;11.30;99.90
4602;DHT22;2313;48.552;9.370;2023-04-25T14:33:14;11.80;99.90
4602;DHT22;2313;48.552;9.370;2023-04-25T14:35:40;11.80;99.90
4602;DHT22;2313;48.552;9.370;2023-04-25T14:38:05;11.70;99.90
4602;DHT22;2313;48.552;9.370;2023-04-25T14:40:31;11.40;99.90
4602;DHT22;2313;48.552;9.370;2023-04-25T14:42:57;11.40;99.90
4602;DHT22;2313;48.552;9.370;2023-04-25T14:45:22;11.20;99.90
4602;DHT22;2313;48.552;9.370;2023-04-25T14:47:48;10.90;99.90
4602;DHT22;2313;48.552;9.370;2023-04-25T14:50:14;10.80;99.90
4602;DHT22;2313;48.552;9.370;2023-04-25T14:52:40;10.90;99.90
4602;DHT22;2313;48.552;9.370;2023-04-25T14:55:05;10.90;99.90
4602;DHT22;2313;48.552;9.370;2023-04-25T14:57:33;10.80;99.90
4602;DHT22;2313;48.552;9.370;2023-04-25T14:59:58;10.80;99.90
4602;DHT22;2313;48.552;9.370;2023-04-25T15:02:24;10.90;99.90
4602;DHT22;2313;48.552;9.370;2023-04-25T15:04:51;11.20;99.90
4602;DHT22;2313;48.552;9.370;2023-04-25T15:07:16;11.30;99.90
4602;DHT22;2313;48.552;9.370;2023-04-25T15:09:42;11.10;99.90
4602;DHT22;2313;48.552;9.370;2023-04-25T15:12:08;11.00;99.90
4602;DHT22;2313;48.552;9.370;2023-04-25T15:14:34;11.00;99.90
4602;DHT22;2313;48.552;9.370;2023-04-25T15:17:00;10.80;99.90
4602;DHT22;2313;48.552;9.370;2023-04-25T15:19:25;11.00;99.90
4602;DHT22;2313;48.552;9.370;2023-04-25T15:21:51;11.20;99.90
4602;DHT22;2313;48.552;9.370;2023-04-25T15:24:17;11.60;99.90
4602;DHT22;2313;48.552;9.370;2023-04-25T15:26:43;11.60;99.90
4602;DHT22;2313;48.552;9.370;2023-04-25T15:29:10;11.40;99.90
4602;DHT22;2313;48.552;9.370;2023-04-25T15:31:37;11.30;99.90
4602;DHT22;2313;48.552;9.370;2023-04-25T15:34:03;11.30;99.90
4602;DHT22;2313;48.552;9.370;2023-04-25T15:36:28;11.10;99.90
4602;DHT22;2313;48.552;9.370;2023-04-25T15:38:54;11.20;99.90
4602;DHT22;2313;48.552;9.370;2023-04-25T15:41:21;11.10;99.90
4602;DHT22;2313;48.552;9.370;2023-04-25T15:43:47;11.00;99.90
4602;DHT22;2313;48.552;9.370;2023-04-25T15:46:13;10.90;99.90
4602;DHT22;2313;48.552;9.370;2023-04-25T15:48:39;10.90;99.90
4602;DHT22;2313;48.552;9.370;2023-04-25T15:51:04;10.80;99.90
4602;DHT22;2313;48.552;9.370;2023-04-25T15:53:30;10.60;99.90
4602;DHT22;2313;48.552;9.370;2023-04-25T15:55:56;10.50;99.90
4602;DHT22;2313;48.552;9.370;2023-04-25T15:58:22;10.60;99.90
4602;DHT22;2313;48.552;9.370;2023-04-25T16:00:47;10.70;99.90
4602;DHT22;2313;48.552;9.370;2023-04-25T16:03:14;10.80;99.90
4602;DHT22;2313;48.552;9.370;2023-04-25T16:05:40;10.70;99.90
4602;DHT22;2313;48.552;9.370;2023-04-25T16:08:06;10.70;99.90
4602;DHT22;2313;48.552;9.370;2023-04-25T16:10:32;10.80;99.90
4602;DHT22;2313;48.552;9.370;2023-04-25T16:12:57;10.70;99.90
4602;DHT22;2313;48.552;9.370;2023-04-25T16:15:23;10.80;99.90
4602;DHT22;2313;48.552;9.370;2023-04-25T16:17:49;10.80;99.90
4602;DHT22;2313;48.552;9.370;2023-04-25T16:20:15;10.70;99.90
4602;DHT22;2313;48.552;9.370;2023-04-25T16:22:42;10.70;99.90
4602;DHT22;2313;48.552;9.370;2023-04-25T16:25:08;10.70;99.90
4602;DHT22;2313;48.552;9.370;2023-04-25T16:27:34;10.80;99.90